sensor_id;sensor_type;location;lat;lon;timestamp;P1;durP1;ratioP1;P2;durP2;ratioP2
68455;SDS011;55437;55.046;38.838;2023-02-02T00:01:54;24.83;;;9.35;;
68455;SDS011;55437;55.046;38.838;2023-02-02T00:04:26;24.38;;;9.38;;
68455;SDS011;55437;55.046;38.838;2023-02-02T00:06:54;22.77;;;9.70;;
68455;SDS011;55437;55.046;38.838;2023-02-02T00:09:28;18.10;;;8.10;;
68455;SDS011;55437;55.046;38.838;2023-02-02T00:11:55;22.10;;;9.18;;
68455;SDS011;55437;55.046;38.838;2023-02-02T00:14:22;23.42;;;10.45;;
68455;SDS011;55437;55.046;38.838;2023-02-02T00:16:49;25.38;;;10.75;;
68455;SDS011;55437;55.046;38.838;2023-02-02T00:19:20;22.58;;;9.90;;
68455;SDS011;55437;55.046;38.838;2023-02-02T00:21:50;22.58;;;9.93;;
68455;SDS011;55437;55.046;38.838;2023-02-02T00:24:17;23.88;;;10.05;;
68455;SDS011;55437;55.046;38.838;2023-02-02T00:26:44;21.73;;;9.40;;
68455;SDS011;55437;55.046;38.838;2023-02-02T00:29:19;24.83;;;9.77;;
68455;SDS011;55437;55.046;38.838;2023-02-02T00:31:47;23.58;;;9.63;;
68455;SDS011;55437;55.046;38.838;2023-02-02T00:34:14;23.52;;;10.15;;
68455;SDS011;55437;55.046;38.838;2023-02-02T00:36:41;23.90;;;10.15;;
68455;SDS011;55437;55.046;38.838;2023-02-02T00:39:07;24.85;;;10.35;;
68455;SDS011;55437;55.046;38.838;2023-02-02T00:41:34;22.33;;;9.27;;
68455;SDS011;55437;55.046;38.838;2023-02-02T00:43:59;22.42;;;10.05;;
68455;SDS011;55437;55.046;38.838;2023-02-02T00:46:44;25.50;;;11.40;;
68455;SDS011;55437;55.046;38.838;2023-02-02T00:49:09;21.48;;;9.90;;
68455;SDS011;55437;55.046;38.838;2023-02-02T00:51:35;23.55;;;10.30;;
68455;SDS011;55437;55.046;38.838;2023-02-02T00:54:02;22.95;;;10.30;;
68455;SDS011;55437;55.046;38.838;2023-02-02T00:56:29;23.80;;;9.90;;
68455;SDS011;55437;55.046;38.838;2023-02-02T00:58:55;25.50;;;10.48;;
68455;SDS011;55437;55.046;38.838;2023-02-02T01:01:21;22.45;;;10.73;;
68455;SDS011;55437;55.046;38.838;2023-02-02T01:03:48;20.05;;;8.90;;
68455;SDS011;55437;55.046;38.838;2023-02-02T01:06:15;24.10;;;10.55;;
68455;SDS011;55437;55.046;38.838;2023-02-02T01:08:41;23.27;;;9.90;;
68455;SDS011;55437;55.046;38.838;2023-02-02T01:11:07;21.58;;;9.45;;
68455;SDS011;55437;55.046;38.838;2023-02-02T01:13:33;20.85;;;9.98;;
68455;SDS011;55437;55.046;38.838;2023-02-02T01:16:00;20.35;;;9.63;;
68455;SDS011;55437;55.046;38.838;2023-02-02T01:18:26;21.33;;;9.43;;
68455;SDS011;55437;55.046;38.838;2023-02-02T01:21:04;22.80;;;9.32;;
68455;SDS011;55437;55.046;38.838;2023-02-02T01:23:31;21.58;;;9.10;;
68455;SDS011;55437;55.046;38.838;2023-02-02T01:25:58;22.75;;;9.73;;
68455;SDS011;55437;55.046;38.838;2023-02-02T01:28:26;25.65;;;10.50;;
68455;SDS011;55437;55.046;38.838;2023-02-02T01:30:53;23.30;;;9.77;;
68455;SDS011;55437;55.046;38.838;2023-02-02T01:33:20;22.50;;;9.90;;
68455;SDS011;55437;55.046;38.838;2023-02-02T01:35:47;21.42;;;9.90;;
68455;SDS011;55437;55.046;38.838;2023-02-02T01:38:14;22.92;;;9.68;;
68455;SDS011;55437;55.046;38.838;2023-02-02T01:40:44;24.05;;;9.70;;
68455;SDS011;55437;55.046;38.838;2023-02-02T01:46:06;24.65;;;10.18;;
68455;SDS011;55437;55.046;38.838;2023-02-02T01:48:39;23.65;;;10.15;;
68455;SDS011;55437;55.046;38.838;2023-02-02T01:51:09;25.13;;;10.05;;
68455;SDS011;55437;55.046;38.838;2023-02-02T01:53:39;25.27;;;10.55;;
68455;SDS011;55437;55.046;38.838;2023-02-02T01:56:06;21.60;;;9.35;;
68455;SDS011;55437;55.046;38.838;2023-02-02T01:58:37;20.33;;;9.15;;
68455;SDS011;55437;55.046;38.838;2023-02-02T02:01:05;25.85;;;10.02;;
68455;SDS011;55437;55.046;38.838;2023-02-02T02:03:32;24.73;;;10.40;;
68455;SDS011;55437;55.046;38.838;2023-02-02T02:06:04;22.10;;;10.25;;
68455;SDS011;55437;55.046;38.838;2023-02-02T02:08:42;24.60;;;9.82;;
68455;SDS011;55437;55.046;38.838;2023-02-02T02:11:22;24.77;;;9.68;;
68455;SDS011;55437;55.046;38.838;2023-02-02T02:13:48;24.50;;;10.68;;
68455;SDS011;55437;55.046;38.838;2023-02-02T02:19:37;26.20;;;10.18;;
68455;SDS011;55437;55.046;38.838;2023-02-02T02:25:36;25.50;;;10.07;;
68455;SDS011;55437;55.046;38.838;2023-02-02T02:31:35;23.20;;;9.70;;
68455;SDS011;55437;55.046;38.838;2023-02-02T02:34:34;22.83;;;9.18;;
68455;SDS011;55437;55.046;38.838;2023-02-02T02:42:36;24.85;;;9.68;;
68455;SDS011;55437;55.046;38.838;2023-02-02T02:45:07;23.70;;;10.43;;
68455;SDS011;55437;55.046;38.838;2023-02-02T02:47:35;24.45;;;10.00;;
68455;SDS011;55437;55.046;38.838;2023-02-02T02:50:03;23.67;;;10.52;;
68455;SDS011;55437;55.046;38.838;2023-02-02T02:52:30;25.75;;;10.02;;
68455;SDS011;55437;55.046;38.838;2023-02-02T02:54:57;25.52;;;9.70;;
68455;SDS011;55437;55.046;38.838;2023-02-02T02:59:55;25.17;;;9.15;;
68455;SDS011;55437;55.046;38.838;2023-02-02T03:05:07;21.35;;;8.20;;
68455;SDS011;55437;55.046;38.838;2023-02-02T03:12:59;20.27;;;9.18;;
68455;SDS011;55437;55.046;38.838;2023-02-02T03:15:24;21.92;;;8.68;;
68455;SDS011;55437;55.046;38.838;2023-02-02T03:17:51;24.95;;;10.05;;
68455;SDS011;55437;55.046;38.838;2023-02-02T03:20:18;26.23;;;10.63;;
68455;SDS011;55437;55.046;38.838;2023-02-02T03:22:44;27.27;;;10.43;;
68455;SDS011;55437;55.046;38.838;2023-02-02T03:25:10;25.88;;;10.50;;
68455;SDS011;55437;55.046;38.838;2023-02-02T03:27:38;23.08;;;10.35;;
68455;SDS011;55437;55.046;38.838;2023-02-02T03:30:05;24.75;;;9.95;;
68455;SDS011;55437;55.046;38.838;2023-02-02T03:32:34;22.42;;;9.90;;
68455;SDS011;55437;55.046;38.838;2023-02-02T03:35:00;23.48;;;9.63;;
68455;SDS011;55437;55.046;38.838;2023-02-02T03:37:27;23.98;;;9.63;;
68455;SDS011;55437;55.046;38.838;2023-02-02T03:39:53;26.52;;;11.40;;
68455;SDS011;55437;55.046;38.838;2023-02-02T03:42:18;25.27;;;9.13;;
68455;SDS011;55437;55.046;38.838;2023-02-02T03:44:44;22.77;;;9.75;;
68455;SDS011;55437;55.046;38.838;2023-02-02T03:47:09;26.20;;;10.35;;
68455;SDS011;55437;55.046;38.838;2023-02-02T03:49:35;21.40;;;9.27;;
68455;SDS011;55437;55.046;38.838;2023-02-02T03:52:01;24.50;;;9.73;;
68455;SDS011;55437;55.046;38.838;2023-02-02T03:54:29;27.27;;;10.38;;
68455;SDS011;55437;55.046;38.838;2023-02-02T03:56:55;23.33;;;9.55;;
68455;SDS011;55437;55.046;38.838;2023-02-02T03:59:21;22.83;;;10.30;;
68455;SDS011;55437;55.046;38.838;2023-02-02T04:01:47;21.98;;;9.18;;
68455;SDS011;55437;55.046;38.838;2023-02-02T04:04:14;23.80;;;9.95;;
68455;SDS011;55437;55.046;38.838;2023-02-02T04:06:40;25.95;;;10.02;;
68455;SDS011;55437;55.046;38.838;2023-02-02T04:09:06;24.17;;;9.38;;
68455;SDS011;55437;55.046;38.838;2023-02-02T04:11:32;23.23;;;9.75;;
68455;SDS011;55437;55.046;38.838;2023-02-02T04:13:58;23.00;;;9.32;;
68455;SDS011;55437;55.046;38.838;2023-02-02T04:16:23;24.73;;;10.30;;
68455;SDS011;55437;55.046;38.838;2023-02-02T04:18:49;23.52;;;10.40;;
68455;SDS011;55437;55.046;38.838;2023-02-02T04:21:17;25.38;;;10.55;;
68455;SDS011;55437;55.046;38.838;2023-02-02T04:23:43;23.67;;;10.90;;
68455;SDS011;55437;55.046;38.838;2023-02-02T04:26:08;21.42;;;9.73;;
68455;SDS011;55437;55.046;38.838;2023-02-02T04:28:34;25.92;;;11.05;;
68455;SDS011;55437;55.046;38.838;2023-02-02T04:31:00;26.33;;;10.70;;
68455;SDS011;55437;55.046;38.838;2023-02-02T04:33:26;20.98;;;9.70;;
68455;SDS011;55437;55.046;38.838;2023-02-02T04:35:53;25.60;;;10.80;;
68455;SDS011;55437;55.046;38.838;2023-02-02T04:38:19;26.33;;;11.18;;
68455;SDS011;55437;55.046;38.838;2023-02-02T04:40:45;27.95;;;12.85;;
68455;SDS011;55437;55.046;38.838;2023-02-02T04:43:12;23.05;;;9.70;;
68455;SDS011;55437;55.046;38.838;2023-02-02T04:45:39;27.52;;;11.93;;
68455;SDS011;55437;55.046;38.838;2023-02-02T04:48:06;27.50;;;11.23;;
68455;SDS011;55437;55.046;38.838;2023-02-02T04:50:32;31.80;;;12.65;;
68455;SDS011;55437;55.046;38.838;2023-02-02T04:52:58;28.95;;;11.43;;
68455;SDS011;55437;55.046;38.838;2023-02-02T04:55:24;27.45;;;11.93;;
68455;SDS011;55437;55.046;38.838;2023-02-02T04:57:49;31.92;;;12.95;;
68455;SDS011;55437;55.046;38.838;2023-02-02T05:00:15;30.20;;;12.85;;
68455;SDS011;55437;55.046;38.838;2023-02-02T05:02:41;29.50;;;11.88;;
68455;SDS011;55437;55.046;38.838;2023-02-02T05:05:08;30.05;;;13.90;;
68455;SDS011;55437;55.046;38.838;2023-02-02T05:07:36;24.95;;;11.30;;
68455;SDS011;55437;55.046;38.838;2023-02-02T05:10:05;31.85;;;13.55;;
68455;SDS011;55437;55.046;38.838;2023-02-02T05:12:33;30.65;;;13.00;;
68455;SDS011;55437;55.046;38.838;2023-02-02T05:14:58;32.70;;;12.82;;
68455;SDS011;55437;55.046;38.838;2023-02-02T05:17:30;34.95;;;13.07;;
68455;SDS011;55437;55.046;38.838;2023-02-02T05:19:56;36.63;;;13.52;;
68455;SDS011;55437;55.046;38.838;2023-02-02T05:22:21;36.22;;;14.25;;
68455;SDS011;55437;55.046;38.838;2023-02-02T05:24:47;35.15;;;14.38;;
68455;SDS011;55437;55.046;38.838;2023-02-02T05:27:13;39.15;;;15.50;;
68455;SDS011;55437;55.046;38.838;2023-02-02T05:29:38;36.67;;;14.07;;
68455;SDS011;55437;55.046;38.838;2023-02-02T05:32:04;38.10;;;16.05;;
68455;SDS011;55437;55.046;38.838;2023-02-02T05:34:30;40.47;;;15.68;;
68455;SDS011;55437;55.046;38.838;2023-02-02T05:36:55;41.95;;;15.82;;
68455;SDS011;55437;55.046;38.838;2023-02-02T05:39:21;34.45;;;14.35;;
68455;SDS011;55437;55.046;38.838;2023-02-02T05:41:47;42.45;;;15.15;;
68455;SDS011;55437;55.046;38.838;2023-02-02T05:44:13;43.08;;;16.30;;
68455;SDS011;55437;55.046;38.838;2023-02-02T05:46:39;41.03;;;15.68;;
68455;SDS011;55437;55.046;38.838;2023-02-02T05:49:05;41.10;;;15.40;;
68455;SDS011;55437;55.046;38.838;2023-02-02T05:51:51;39.17;;;15.32;;
68455;SDS011;55437;55.046;38.838;2023-02-02T05:54:19;42.97;;;17.80;;
68455;SDS011;55437;55.046;38.838;2023-02-02T05:56:49;31.80;;;13.15;;
68455;SDS011;55437;55.046;38.838;2023-02-02T05:59:17;44.67;;;16.80;;
68455;SDS011;55437;55.046;38.838;2023-02-02T06:01:47;37.63;;;15.35;;
68455;SDS011;55437;55.046;38.838;2023-02-02T06:04:13;38.78;;;15.75;;
68455;SDS011;55437;55.046;38.838;2023-02-02T06:06:39;38.80;;;15.60;;
68455;SDS011;55437;55.046;38.838;2023-02-02T06:09:06;39.92;;;15.55;;
68455;SDS011;55437;55.046;38.838;2023-02-02T06:11:32;42.17;;;16.55;;
68455;SDS011;55437;55.046;38.838;2023-02-02T06:13:58;43.10;;;16.13;;
68455;SDS011;55437;55.046;38.838;2023-02-02T06:16:24;38.60;;;15.07;;
68455;SDS011;55437;55.046;38.838;2023-02-02T06:18:50;38.33;;;14.23;;
68455;SDS011;55437;55.046;38.838;2023-02-02T06:21:16;39.45;;;15.55;;
68455;SDS011;55437;55.046;38.838;2023-02-02T06:23:44;39.03;;;15.20;;
68455;SDS011;55437;55.046;38.838;2023-02-02T06:26:11;38.75;;;14.80;;
68455;SDS011;55437;55.046;38.838;2023-02-02T06:28:37;36.05;;;14.88;;
68455;SDS011;55437;55.046;38.838;2023-02-02T06:31:04;37.78;;;16.50;;
68455;SDS011;55437;55.046;38.838;2023-02-02T06:33:33;38.55;;;15.38;;
68455;SDS011;55437;55.046;38.838;2023-02-02T06:36:01;36.97;;;15.35;;
68455;SDS011;55437;55.046;38.838;2023-02-02T06:38:28;38.47;;;14.48;;
68455;SDS011;55437;55.046;38.838;2023-02-02T06:40:54;33.10;;;14.35;;
68455;SDS011;55437;55.046;38.838;2023-02-02T06:43:20;36.75;;;14.73;;
68455;SDS011;55437;55.046;38.838;2023-02-02T06:45:45;39.10;;;14.73;;
68455;SDS011;55437;55.046;38.838;2023-02-02T06:48:11;39.13;;;13.82;;
68455;SDS011;55437;55.046;38.838;2023-02-02T06:50:38;37.85;;;14.43;;
68455;SDS011;55437;55.046;38.838;2023-02-02T06:53:04;27.73;;;10.82;;
68455;SDS011;55437;55.046;38.838;2023-02-02T06:55:30;35.42;;;13.45;;
68455;SDS011;55437;55.046;38.838;2023-02-02T06:57:56;38.13;;;15.05;;
68455;SDS011;55437;55.046;38.838;2023-02-02T07:00:26;33.38;;;14.63;;
68455;SDS011;55437;55.046;38.838;2023-02-02T07:02:53;37.90;;;14.27;;
68455;SDS011;55437;55.046;38.838;2023-02-02T07:05:19;33.67;;;13.23;;
68455;SDS011;55437;55.046;38.838;2023-02-02T07:07:48;37.35;;;14.68;;
68455;SDS011;55437;55.046;38.838;2023-02-02T07:10:15;39.72;;;14.40;;
68455;SDS011;55437;55.046;38.838;2023-02-02T07:12:41;30.90;;;13.45;;
68455;SDS011;55437;55.046;38.838;2023-02-02T07:15:07;35.10;;;14.35;;
68455;SDS011;55437;55.046;38.838;2023-02-02T07:17:33;42.03;;;15.65;;
68455;SDS011;55437;55.046;38.838;2023-02-02T07:19:59;37.30;;;14.30;;
68455;SDS011;55437;55.046;38.838;2023-02-02T07:22:24;36.53;;;13.68;;
68455;SDS011;55437;55.046;38.838;2023-02-02T07:24:50;35.78;;;14.07;;
68455;SDS011;55437;55.046;38.838;2023-02-02T07:27:16;34.45;;;13.82;;
68455;SDS011;55437;55.046;38.838;2023-02-02T07:29:41;31.38;;;13.35;;
68455;SDS011;55437;55.046;38.838;2023-02-02T07:32:07;35.10;;;13.35;;
68455;SDS011;55437;55.046;38.838;2023-02-02T07:34:36;36.30;;;14.50;;
68455;SDS011;55437;55.046;38.838;2023-02-02T07:37:02;36.95;;;15.65;;
68455;SDS011;55437;55.046;38.838;2023-02-02T07:39:28;37.88;;;14.75;;
68455;SDS011;55437;55.046;38.838;2023-02-02T07:41:54;31.58;;;13.10;;
68455;SDS011;55437;55.046;38.838;2023-02-02T07:44:29;32.45;;;13.05;;
68455;SDS011;55437;55.046;38.838;2023-02-02T07:46:55;32.08;;;13.18;;
68455;SDS011;55437;55.046;38.838;2023-02-02T07:49:21;33.13;;;13.50;;
68455;SDS011;55437;55.046;38.838;2023-02-02T07:51:46;34.53;;;13.65;;
68455;SDS011;55437;55.046;38.838;2023-02-02T07:54:13;35.60;;;13.40;;
68455;SDS011;55437;55.046;38.838;2023-02-02T07:56:39;35.00;;;13.05;;
68455;SDS011;55437;55.046;38.838;2023-02-02T07:59:05;37.08;;;13.07;;
68455;SDS011;55437;55.046;38.838;2023-02-02T08:01:31;32.13;;;13.80;;
68455;SDS011;55437;55.046;38.838;2023-02-02T08:03:57;33.63;;;13.55;;
68455;SDS011;55437;55.046;38.838;2023-02-02T08:06:35;32.70;;;13.18;;
68455;SDS011;55437;55.046;38.838;2023-02-02T08:09:03;31.90;;;13.65;;
68455;SDS011;55437;55.046;38.838;2023-02-02T08:11:32;34.03;;;12.55;;
68455;SDS011;55437;55.046;38.838;2023-02-02T08:13:59;32.08;;;12.68;;
68455;SDS011;55437;55.046;38.838;2023-02-02T08:16:26;30.00;;;12.02;;
68455;SDS011;55437;55.046;38.838;2023-02-02T08:18:53;34.47;;;12.57;;
68455;SDS011;55437;55.046;38.838;2023-02-02T08:21:19;35.42;;;12.52;;
68455;SDS011;55437;55.046;38.838;2023-02-02T08:23:45;34.38;;;14.25;;
68455;SDS011;55437;55.046;38.838;2023-02-02T08:26:13;30.77;;;12.93;;
68455;SDS011;55437;55.046;38.838;2023-02-02T08:28:39;28.50;;;11.63;;
68455;SDS011;55437;55.046;38.838;2023-02-02T08:33:36;35.40;;;12.73;;
68455;SDS011;55437;55.046;38.838;2023-02-02T08:36:03;36.72;;;13.88;;
68455;SDS011;55437;55.046;38.838;2023-02-02T08:38:29;32.38;;;14.02;;
68455;SDS011;55437;55.046;38.838;2023-02-02T08:40:54;37.20;;;13.82;;
68455;SDS011;55437;55.046;38.838;2023-02-02T08:43:31;30.73;;;12.75;;
68455;SDS011;55437;55.046;38.838;2023-02-02T08:45:57;34.72;;;13.18;;
68455;SDS011;55437;55.046;38.838;2023-02-02T08:48:25;34.53;;;14.32;;
68455;SDS011;55437;55.046;38.838;2023-02-02T08:50:51;34.35;;;13.50;;
68455;SDS011;55437;55.046;38.838;2023-02-02T08:53:18;36.13;;;13.85;;
68455;SDS011;55437;55.046;38.838;2023-02-02T08:55:44;29.40;;;13.02;;
68455;SDS011;55437;55.046;38.838;2023-02-02T08:58:09;34.60;;;13.70;;
68455;SDS011;55437;55.046;38.838;2023-02-02T09:00:35;35.88;;;14.23;;
68455;SDS011;55437;55.046;38.838;2023-02-02T09:03:01;39.05;;;15.90;;
68455;SDS011;55437;55.046;38.838;2023-02-02T09:05:26;31.98;;;13.93;;
68455;SDS011;55437;55.046;38.838;2023-02-02T09:07:52;38.60;;;14.45;;
68455;SDS011;55437;55.046;38.838;2023-02-02T09:10:18;36.55;;;13.70;;
68455;SDS011;55437;55.046;38.838;2023-02-02T09:12:44;37.67;;;14.38;;
68455;SDS011;55437;55.046;38.838;2023-02-02T09:15:10;35.22;;;14.15;;
68455;SDS011;55437;55.046;38.838;2023-02-02T09:17:36;37.78;;;15.55;;
68455;SDS011;55437;55.046;38.838;2023-02-02T09:20:02;40.85;;;14.63;;
68455;SDS011;55437;55.046;38.838;2023-02-02T09:22:29;31.42;;;12.32;;
68455;SDS011;55437;55.046;38.838;2023-02-02T09:24:54;38.17;;;14.85;;
68455;SDS011;55437;55.046;38.838;2023-02-02T09:27:20;35.95;;;14.45;;
68455;SDS011;55437;55.046;38.838;2023-02-02T09:29:46;34.28;;;14.35;;
68455;SDS011;55437;55.046;38.838;2023-02-02T09:32:12;36.20;;;15.48;;
68455;SDS011;55437;55.046;38.838;2023-02-02T09:34:38;32.90;;;14.00;;
68455;SDS011;55437;55.046;38.838;2023-02-02T09:37:04;37.42;;;14.63;;
68455;SDS011;55437;55.046;38.838;2023-02-02T09:39:29;36.47;;;14.85;;
68455;SDS011;55437;55.046;38.838;2023-02-02T09:50:02;39.80;;;16.25;;
68455;SDS011;55437;55.046;38.838;2023-02-02T09:55:54;38.63;;;14.85;;
68455;SDS011;55437;55.046;38.838;2023-02-02T10:00:47;38.45;;;15.55;;
68455;SDS011;55437;55.046;38.838;2023-02-02T10:06:01;36.38;;;13.98;;
68455;SDS011;55437;55.046;38.838;2023-02-02T10:08:43;37.35;;;14.27;;
68455;SDS011;55437;55.046;38.838;2023-02-02T10:11:36;42.28;;;16.17;;
68455;SDS011;55437;55.046;38.838;2023-02-02T10:14:14;40.25;;;15.60;;
68455;SDS011;55437;55.046;38.838;2023-02-02T10:16:52;36.72;;;15.82;;
68455;SDS011;55437;55.046;38.838;2023-02-02T10:19:19;38.17;;;15.95;;
68455;SDS011;55437;55.046;38.838;2023-02-02T10:21:53;35.78;;;13.73;;
68455;SDS011;55437;55.046;38.838;2023-02-02T10:24:27;36.88;;;14.95;;
68455;SDS011;55437;55.046;38.838;2023-02-02T10:27:37;40.78;;;15.32;;
68455;SDS011;55437;55.046;38.838;2023-02-02T10:29:57;36.60;;;15.05;;
68455;SDS011;55437;55.046;38.838;2023-02-02T10:32:38;38.80;;;15.15;;
68455;SDS011;55437;55.046;38.838;2023-02-02T10:35:30;36.45;;;13.75;;
68455;SDS011;55437;55.046;38.838;2023-02-02T10:40:49;37.38;;;14.68;;
68455;SDS011;55437;55.046;38.838;2023-02-02T10:51:48;37.08;;;15.27;;
68455;SDS011;55437;55.046;38.838;2023-02-02T10:54:31;45.05;;;15.95;;
68455;SDS011;55437;55.046;38.838;2023-02-02T10:57:02;41.42;;;16.38;;
68455;SDS011;55437;55.046;38.838;2023-02-02T10:59:32;41.97;;;16.20;;
68455;SDS011;55437;55.046;38.838;2023-02-02T11:02:08;38.20;;;15.57;;
68455;SDS011;55437;55.046;38.838;2023-02-02T11:04:35;38.38;;;16.27;;
68455;SDS011;55437;55.046;38.838;2023-02-02T11:07:30;35.92;;;14.80;;
68455;SDS011;55437;55.046;38.838;2023-02-02T11:09:56;38.58;;;15.00;;
68455;SDS011;55437;55.046;38.838;2023-02-02T11:12:32;40.17;;;15.27;;
68455;SDS011;55437;55.046;38.838;2023-02-02T11:17:33;38.15;;;14.38;;
68455;SDS011;55437;55.046;38.838;2023-02-02T11:19:59;39.47;;;16.23;;
68455;SDS011;55437;55.046;38.838;2023-02-02T11:22:32;39.60;;;16.30;;
68455;SDS011;55437;55.046;38.838;2023-02-02T11:25:02;42.85;;;17.88;;
68455;SDS011;55437;55.046;38.838;2023-02-02T11:27:56;39.80;;;15.45;;
68455;SDS011;55437;55.046;38.838;2023-02-02T11:30:24;36.72;;;14.55;;
68455;SDS011;55437;55.046;38.838;2023-02-02T11:32:54;43.53;;;16.33;;
68455;SDS011;55437;55.046;38.838;2023-02-02T11:35:22;39.03;;;15.90;;
68455;SDS011;55437;55.046;38.838;2023-02-02T11:37:56;38.45;;;15.90;;
68455;SDS011;55437;55.046;38.838;2023-02-02T11:43:16;40.95;;;14.73;;
68455;SDS011;55437;55.046;38.838;2023-02-02T11:45:45;36.35;;;14.38;;
68455;SDS011;55437;55.046;38.838;2023-02-02T11:48:18;42.03;;;15.88;;
68455;SDS011;55437;55.046;38.838;2023-02-02T11:50:53;38.78;;;16.05;;
68455;SDS011;55437;55.046;38.838;2023-02-02T11:53:41;43.35;;;17.88;;
68455;SDS011;55437;55.046;38.838;2023-02-02T11:56:18;40.78;;;15.50;;
68455;SDS011;55437;55.046;38.838;2023-02-02T11:58:47;36.78;;;14.70;;
68455;SDS011;55437;55.046;38.838;2023-02-02T12:01:24;41.30;;;15.23;;
68455;SDS011;55437;55.046;38.838;2023-02-02T12:03:53;33.15;;;14.32;;
68455;SDS011;55437;55.046;38.838;2023-02-02T12:08:55;36.88;;;14.38;;
68455;SDS011;55437;55.046;38.838;2023-02-02T12:14:00;38.40;;;14.40;;
68455;SDS011;55437;55.046;38.838;2023-02-02T12:24:58;32.45;;;15.13;;
68455;SDS011;55437;55.046;38.838;2023-02-02T12:27:49;35.25;;;13.38;;
68455;SDS011;55437;55.046;38.838;2023-02-02T12:32:51;34.70;;;14.25;;
68455;SDS011;55437;55.046;38.838;2023-02-02T12:41:16;43.17;;;15.20;;
68455;SDS011;55437;55.046;38.838;2023-02-02T12:46:48;32.58;;;12.95;;
68455;SDS011;55437;55.046;38.838;2023-02-02T13:03:23;29.70;;;11.88;;
68455;SDS011;55437;55.046;38.838;2023-02-02T13:11:11;30.95;;;12.73;;
68455;SDS011;55437;55.046;38.838;2023-02-02T13:13:57;31.80;;;11.88;;
68455;SDS011;55437;55.046;38.838;2023-02-02T13:16:29;31.20;;;12.02;;
68455;SDS011;55437;55.046;38.838;2023-02-02T13:19:03;29.92;;;12.20;;
68455;SDS011;55437;55.046;38.838;2023-02-02T13:21:32;29.40;;;12.35;;
68455;SDS011;55437;55.046;38.838;2023-02-02T13:24:01;31.23;;;13.20;;
68455;SDS011;55437;55.046;38.838;2023-02-02T13:26:31;27.85;;;12.00;;
68455;SDS011;55437;55.046;38.838;2023-02-02T13:31:55;32.08;;;13.77;;
68455;SDS011;55437;55.046;38.838;2023-02-02T13:34:28;28.33;;;10.75;;
68455;SDS011;55437;55.046;38.838;2023-02-02T13:37:10;28.42;;;10.57;;
68455;SDS011;55437;55.046;38.838;2023-02-02T13:40:15;26.25;;;9.75;;
68455;SDS011;55437;55.046;38.838;2023-02-02T13:57:35;25.40;;;9.68;;
68455;SDS011;55437;55.046;38.838;2023-02-02T14:00:25;24.90;;;10.40;;
68455;SDS011;55437;55.046;38.838;2023-02-02T14:02:59;22.67;;;9.85;;
68455;SDS011;55437;55.046;38.838;2023-02-02T14:08:04;26.38;;;11.23;;
68455;SDS011;55437;55.046;38.838;2023-02-02T14:13:13;28.63;;;10.10;;
68455;SDS011;55437;55.046;38.838;2023-02-02T14:16:04;25.80;;;11.48;;
68455;SDS011;55437;55.046;38.838;2023-02-02T14:26:54;25.08;;;11.05;;
68455;SDS011;55437;55.046;38.838;2023-02-02T14:31:58;23.17;;;9.73;;
68455;SDS011;55437;55.046;38.838;2023-02-02T14:47:55;23.58;;;10.45;;
68455;SDS011;55437;55.046;38.838;2023-02-02T14:50:39;25.55;;;10.73;;
68455;SDS011;55437;55.046;38.838;2023-02-02T14:53:32;23.70;;;10.38;;
68455;SDS011;55437;55.046;38.838;2023-02-02T14:56:08;25.50;;;11.05;;
68455;SDS011;55437;55.046;38.838;2023-02-02T14:58:42;23.85;;;10.52;;
68455;SDS011;55437;55.046;38.838;2023-02-02T15:06:45;24.92;;;10.90;;
68455;SDS011;55437;55.046;38.838;2023-02-02T15:14:26;26.00;;;10.63;;
68455;SDS011;55437;55.046;38.838;2023-02-02T15:16:54;26.35;;;11.25;;
68455;SDS011;55437;55.046;38.838;2023-02-02T15:19:23;29.77;;;11.45;;
68455;SDS011;55437;55.046;38.838;2023-02-02T15:21:57;28.58;;;12.07;;
68455;SDS011;55437;55.046;38.838;2023-02-02T15:24:26;22.20;;;9.60;;
68455;SDS011;55437;55.046;38.838;2023-02-02T15:26:54;29.45;;;11.98;;
68455;SDS011;55437;55.046;38.838;2023-02-02T15:29:30;31.20;;;11.98;;
68455;SDS011;55437;55.046;38.838;2023-02-02T15:32:08;24.08;;;10.25;;
68455;SDS011;55437;55.046;38.838;2023-02-02T15:34:44;27.77;;;10.32;;
68455;SDS011;55437;55.046;38.838;2023-02-02T15:37:21;28.45;;;10.93;;
68455;SDS011;55437;55.046;38.838;2023-02-02T15:42:21;23.17;;;9.02;;
68455;SDS011;55437;55.046;38.838;2023-02-02T15:47:59;25.95;;;10.77;;
68455;SDS011;55437;55.046;38.838;2023-02-02T15:50:29;27.17;;;11.43;;
68455;SDS011;55437;55.046;38.838;2023-02-02T15:52:55;24.73;;;10.23;;
68455;SDS011;55437;55.046;38.838;2023-02-02T15:57:47;24.42;;;9.80;;
68455;SDS011;55437;55.046;38.838;2023-02-02T16:02:52;23.83;;;10.27;;
68455;SDS011;55437;55.046;38.838;2023-02-02T16:05:57;24.35;;;9.80;;
68455;SDS011;55437;55.046;38.838;2023-02-02T16:08:29;23.98;;;10.30;;
68455;SDS011;55437;55.046;38.838;2023-02-02T16:11:03;25.17;;;11.25;;
68455;SDS011;55437;55.046;38.838;2023-02-02T16:13:30;21.60;;;9.60;;
68455;SDS011;55437;55.046;38.838;2023-02-02T16:15:58;27.95;;;11.75;;
68455;SDS011;55437;55.046;38.838;2023-02-02T16:18:25;22.77;;;10.10;;
68455;SDS011;55437;55.046;38.838;2023-02-02T16:20:52;24.35;;;9.68;;
68455;SDS011;55437;55.046;38.838;2023-02-02T16:23:23;23.63;;;9.82;;
68455;SDS011;55437;55.046;38.838;2023-02-02T16:25:53;24.73;;;9.77;;
68455;SDS011;55437;55.046;38.838;2023-02-02T16:28:22;30.73;;;11.60;;
68455;SDS011;55437;55.046;38.838;2023-02-02T16:30:48;31.25;;;12.18;;
68455;SDS011;55437;55.046;38.838;2023-02-02T16:36:15;26.33;;;12.02;;
68455;SDS011;55437;55.046;38.838;2023-02-02T16:38:41;30.95;;;11.18;;
68455;SDS011;55437;55.046;38.838;2023-02-02T16:41:07;26.65;;;10.88;;
68455;SDS011;55437;55.046;38.838;2023-02-02T16:43:36;28.85;;;10.77;;
68455;SDS011;55437;55.046;38.838;2023-02-02T16:46:10;30.42;;;12.30;;
68455;SDS011;55437;55.046;38.838;2023-02-02T16:58:59;38.22;;;14.85;;
68455;SDS011;55437;55.046;38.838;2023-02-02T17:01:41;31.15;;;13.80;;
68455;SDS011;55437;55.046;38.838;2023-02-02T17:04:20;31.25;;;12.45;;
68455;SDS011;55437;55.046;38.838;2023-02-02T17:06:51;33.83;;;12.85;;
68455;SDS011;55437;55.046;38.838;2023-02-02T17:09:31;30.88;;;13.13;;
68455;SDS011;55437;55.046;38.838;2023-02-02T17:14:34;35.05;;;13.45;;
68455;SDS011;55437;55.046;38.838;2023-02-02T17:17:01;31.27;;;13.60;;
68455;SDS011;55437;55.046;38.838;2023-02-02T17:19:30;35.10;;;13.45;;
68455;SDS011;55437;55.046;38.838;2023-02-02T17:21:56;31.63;;;12.45;;
68455;SDS011;55437;55.046;38.838;2023-02-02T17:24:26;37.05;;;13.98;;
68455;SDS011;55437;55.046;38.838;2023-02-02T17:26:53;35.15;;;14.05;;
68455;SDS011;55437;55.046;38.838;2023-02-02T17:29:18;32.20;;;11.77;;
68455;SDS011;55437;55.046;38.838;2023-02-02T17:31:45;36.20;;;13.38;;
68455;SDS011;55437;55.046;38.838;2023-02-02T17:34:11;35.83;;;13.93;;
68455;SDS011;55437;55.046;38.838;2023-02-02T17:36:41;32.38;;;13.27;;
68455;SDS011;55437;55.046;38.838;2023-02-02T17:39:09;35.92;;;13.68;;